createdAt,value
2019-01-04T00:00:58.150Z,2.27
2019-01-04T00:03:27.438Z,3.70
2019-01-04T00:05:56.930Z,2.20
2019-01-04T00:08:26.238Z,3.73
2019-01-04T00:10:55.534Z,2.77
2019-01-04T00:13:24.950Z,3.77
2019-01-04T00:15:54.237Z,2.67
2019-01-04T00:18:23.538Z,2.50
2019-01-04T00:20:52.874Z,3.17
2019-01-04T00:23:22.162Z,3.30
2019-01-04T00:25:51.521Z,2.97
2019-01-04T00:28:20.806Z,1.77
2019-01-04T00:30:50.173Z,4.30
2019-01-04T00:33:19.635Z,3.67
2019-01-04T00:35:48.994Z,4.30
2019-01-04T00:38:18.281Z,3.20
2019-01-04T00:40:47.569Z,2.87
2019-01-04T00:43:16.906Z,3.07
2019-01-04T00:45:46.271Z,4.10
2019-01-04T00:48:15.622Z,3.20
2019-01-04T00:50:44.919Z,3.10
2019-01-04T00:53:14.333Z,4.43
2019-01-04T00:56:08.757Z,2.77
2019-01-04T00:59:14.930Z,4.00
2019-01-04T01:02:43.661Z,3.43
2019-01-04T01:06:05.042Z,3.13
2019-01-04T01:09:30.410Z,3.67
2019-01-04T01:12:52.926Z,2.63
2019-01-04T01:15:50.722Z,4.50
2019-01-04T01:19:07.123Z,4.00
2019-01-04T01:22:29.541Z,3.33
2019-01-04T01:26:04.086Z,3.83
2019-01-04T01:29:19.805Z,2.43
2019-01-04T01:32:41.545Z,2.07
2019-01-04T01:36:05.865Z,2.87
2019-01-04T01:39:30.313Z,2.90
2019-01-04T01:42:53.240Z,3.70
2019-01-04T01:45:55.156Z,1.73
2019-01-04T01:49:02.714Z,1.90
2019-01-04T01:52:19.114Z,2.50
2019-01-04T01:54:48.453Z,2.93
2019-01-04T01:57:17.774Z,2.20
2019-01-04T01:59:47.117Z,2.40
2019-01-04T02:02:16.416Z,3.57
2019-01-04T02:04:45.826Z,3.00
2019-01-04T02:07:15.117Z,3.43
2019-01-04T02:09:44.402Z,2.93
2019-01-04T02:12:13.778Z,2.40
2019-01-04T02:14:43.112Z,2.37
2019-01-04T02:17:12.398Z,1.60
2019-01-04T02:19:41.763Z,1.97
2019-01-04T02:22:11.140Z,3.23
2019-01-04T02:24:40.434Z,1.70
2019-01-04T02:27:09.777Z,1.17
2019-01-04T02:29:39.337Z,1.83
2019-01-04T02:32:08.647Z,2.93
2019-01-04T02:34:38.019Z,2.70
2019-01-04T02:37:07.505Z,2.63
2019-01-04T02:39:36.858Z,1.40
2019-01-04T02:42:06.204Z,2.17
2019-01-04T02:44:35.619Z,2.33
2019-01-04T02:47:04.903Z,2.27
2019-01-04T02:49:34.266Z,1.67
2019-01-04T02:52:03.553Z,2.03
2019-01-04T02:54:32.993Z,0.93
2019-01-04T02:57:02.354Z,2.83
2019-01-04T02:59:42.087Z,2.47
2019-01-04T03:02:12.023Z,2.87
2019-01-04T03:04:41.312Z,2.03
2019-01-04T03:07:10.730Z,1.20
2019-01-04T03:09:40.021Z,1.43
2019-01-04T03:12:09.365Z,1.40
2019-01-04T03:14:38.790Z,2.67
2019-01-04T03:17:08.083Z,3.47
2019-01-04T03:19:37.485Z,3.97
2019-01-04T03:22:06.835Z,2.97
2019-01-04T03:24:36.171Z,3.17
2019-01-04T03:27:05.526Z,4.70
2019-01-04T03:29:34.866Z,4.13
2019-01-04T03:32:04.326Z,4.27
2019-01-04T03:34:33.692Z,4.90
2019-01-04T03:37:02.995Z,1.97
2019-01-04T03:39:32.389Z,2.43
2019-01-04T03:42:01.673Z,3.73
2019-01-04T03:44:31.083Z,4.20
2019-01-04T03:47:00.389Z,4.20
2019-01-04T03:49:29.823Z,4.27
2019-01-04T03:51:59.191Z,3.70
2019-01-04T03:54:28.619Z,2.30
2019-01-04T03:56:57.965Z,4.00
2019-01-04T03:59:27.398Z,3.37
2019-01-04T04:01:56.683Z,3.13
2019-01-04T04:04:26.010Z,4.53
2019-01-04T04:06:55.439Z,4.33
2019-01-04T04:09:24.796Z,3.90
2019-01-04T04:11:54.142Z,2.87
2019-01-04T04:14:23.502Z,3.97
2019-01-04T04:16:52.875Z,4.53
2019-01-04T04:19:22.255Z,2.97
2019-01-04T04:21:51.542Z,4.10
2019-01-04T04:24:20.889Z,2.23
2019-01-04T04:26:50.193Z,2.67
2019-01-04T04:29:19.554Z,4.57
2019-01-04T04:31:48.844Z,2.57
2019-01-04T04:34:18.189Z,2.57
2019-01-04T04:36:47.490Z,1.20
2019-01-04T04:39:16.919Z,2.90
2019-01-04T04:41:46.261Z,2.60
2019-01-04T04:44:15.562Z,3.63
2019-01-04T04:46:44.906Z,3.27
2019-01-04T04:49:14.297Z,2.00
2019-01-04T04:51:43.653Z,3.93
2019-01-04T04:54:12.954Z,3.07
2019-01-04T04:56:42.313Z,3.70
2019-01-04T04:59:11.758Z,5.57
2019-01-04T05:01:41.216Z,4.27
2019-01-04T05:04:10.646Z,5.43
2019-01-04T05:06:40.009Z,8.27
2019-01-04T05:09:09.310Z,6.07
2019-01-04T05:11:38.669Z,8.37
2019-01-04T05:14:08.146Z,8.63
2019-01-04T05:16:37.462Z,5.43
2019-01-04T05:19:06.767Z,5.57
2019-01-04T05:21:36.213Z,5.20
2019-01-04T05:24:05.505Z,7.97
2019-01-04T05:26:34.799Z,8.07
2019-01-04T05:29:04.182Z,7.90
2019-01-04T05:31:34.876Z,9.07
2019-01-04T05:34:04.247Z,6.07
2019-01-04T05:36:33.561Z,6.33
2019-01-04T05:39:03.199Z,8.07
2019-01-04T05:41:32.570Z,10.37
2019-01-04T05:44:01.938Z,8.53
2019-01-04T05:46:31.249Z,5.10
2019-01-04T05:49:00.600Z,5.93
2019-01-04T05:51:30.295Z,3.03
2019-01-04T05:53:59.717Z,8.43
2019-01-04T05:56:29.155Z,4.33
2019-01-04T05:58:58.521Z,11.13
2019-01-04T06:01:27.868Z,6.33
2019-01-04T06:03:57.198Z,13.20
2019-01-04T06:06:26.560Z,9.30
2019-01-04T06:08:55.863Z,11.30
2019-01-04T06:11:25.158Z,9.87
2019-01-04T06:13:54.559Z,9.53
2019-01-04T06:16:23.893Z,7.43
2019-01-04T06:18:53.967Z,7.87
2019-01-04T06:21:23.299Z,9.13
2019-01-04T06:23:52.585Z,9.03
2019-01-04T06:26:21.963Z,9.43
2019-01-04T06:28:51.530Z,10.53
2019-01-04T06:31:20.806Z,8.27
2019-01-04T06:33:50.104Z,7.53
2019-01-04T06:36:19.528Z,7.17
2019-01-04T06:38:48.908Z,7.30
2019-01-04T06:41:18.206Z,6.57
2019-01-04T06:43:47.566Z,7.87
2019-01-04T06:46:16.850Z,6.97
2019-01-04T06:48:46.229Z,8.03
2019-01-04T06:51:15.513Z,9.03
2019-01-04T06:53:44.878Z,9.80
2019-01-04T06:56:14.174Z,10.50
2019-01-04T06:58:43.526Z,9.30
2019-01-04T07:01:12.874Z,9.53
2019-01-04T07:03:42.262Z,9.60
2019-01-04T07:06:11.641Z,10.63
2019-01-04T07:08:40.919Z,9.03
2019-01-04T07:11:10.261Z,8.43
2019-01-04T07:13:39.608Z,9.10
2019-01-04T07:16:09.014Z,9.37
2019-01-04T07:18:38.358Z,9.13
2019-01-04T07:21:07.673Z,8.87
2019-01-04T07:23:37.026Z,10.20
2019-01-04T07:26:06.454Z,11.60
2019-01-04T07:28:35.808Z,11.70
2019-01-04T07:31:05.154Z,11.93
2019-01-04T07:33:34.535Z,11.20
2019-01-04T07:36:03.958Z,10.60
2019-01-04T07:38:33.259Z,12.70
2019-01-04T07:41:02.549Z,10.23
2019-01-04T07:43:32.941Z,11.33
2019-01-04T07:46:02.301Z,11.07
2019-01-04T07:48:31.659Z,11.07
2019-01-04T07:51:01.042Z,11.20
2019-01-04T07:53:30.474Z,11.87
2019-01-04T07:56:00.621Z,12.27
2019-01-04T07:58:30.138Z,12.17
2019-01-04T08:00:59.501Z,13.00
2019-01-04T08:03:28.831Z,12.73
2019-01-04T08:06:02.449Z,15.00
2019-01-04T08:08:31.756Z,12.87
2019-01-04T08:11:01.099Z,13.27
2019-01-04T08:13:30.534Z,12.50
2019-01-04T08:15:59.907Z,15.83
2019-01-04T08:18:29.245Z,15.37
2019-01-04T08:20:58.553Z,15.00
2019-01-04T08:23:28.013Z,16.13
2019-01-04T08:25:57.317Z,13.37
2019-01-04T08:28:26.662Z,14.07
2019-01-04T08:30:55.990Z,14.03
2019-01-04T08:33:25.383Z,16.40
2019-01-04T08:35:54.726Z,18.10
2019-01-04T08:38:24.084Z,14.83
2019-01-04T08:40:53.375Z,14.93
2019-01-04T08:43:22.722Z,14.80
2019-01-04T08:45:52.160Z,16.60
2019-01-04T08:48:22.642Z,12.93
2019-01-04T08:50:52.142Z,15.33
2019-01-04T08:53:49.001Z,15.73
2019-01-04T08:56:18.354Z,16.73
2019-01-04T08:58:47.654Z,13.27
2019-01-04T09:01:17.001Z,15.30
2019-01-04T09:03:46.489Z,14.90
2019-01-04T09:06:15.918Z,13.33
2019-01-04T09:08:45.217Z,15.43
2019-01-04T09:11:14.708Z,12.47
2019-01-04T09:13:44.010Z,11.97
2019-01-04T09:16:13.313Z,11.77
2019-01-04T09:18:42.782Z,14.43
2019-01-04T09:21:12.207Z,14.23
2019-01-04T09:23:41.505Z,12.90
2019-01-04T09:26:16.720Z,12.80
2019-01-04T09:28:46.022Z,13.97
2019-01-04T09:31:15.318Z,14.70
2019-01-04T09:33:44.782Z,13.53
2019-01-04T09:36:14.095Z,11.93
2019-01-04T09:38:45.194Z,11.10
2019-01-04T09:41:44.538Z,12.67
2019-01-04T09:44:13.890Z,12.60
2019-01-04T09:46:43.239Z,12.67
2019-01-04T09:49:12.537Z,12.33
2019-01-04T09:51:41.938Z,14.17
2019-01-04T09:54:11.262Z,13.20
2019-01-04T09:56:40.626Z,12.23
2019-01-04T09:59:09.922Z,8.07
2019-01-04T10:01:39.271Z,11.27
2019-01-04T10:04:08.570Z,13.20
2019-01-04T10:06:38.014Z,9.57
2019-01-04T10:09:08.542Z,10.70
2019-01-04T10:11:37.896Z,10.97
2019-01-04T10:14:07.266Z,8.27
2019-01-04T10:16:36.571Z,10.13
2019-01-04T10:19:05.902Z,11.77
2019-01-04T10:21:35.427Z,12.53
2019-01-04T10:24:04.803Z,13.10
2019-01-04T10:26:34.245Z,10.97
2019-01-04T10:29:03.608Z,11.07
2019-01-04T10:31:32.983Z,11.70
2019-01-04T10:34:02.338Z,9.50
2019-01-04T10:36:31.779Z,12.07
2019-01-04T10:39:01.074Z,12.17
2019-01-04T10:41:30.383Z,7.50
2019-01-04T10:43:59.735Z,13.60
2019-01-04T10:46:29.049Z,13.97
2019-01-04T10:48:58.406Z,11.83
2019-01-04T10:51:27.710Z,12.40
2019-01-04T10:53:57.090Z,13.23
2019-01-04T10:56:26.421Z,10.53
2019-01-04T10:58:55.723Z,10.93
2019-01-04T11:01:25.195Z,11.87
2019-01-04T11:03:54.504Z,10.77
2019-01-04T11:06:23.862Z,12.63
2019-01-04T11:08:53.228Z,12.17
2019-01-04T11:11:22.526Z,15.13
2019-01-04T11:13:51.898Z,11.93
2019-01-04T11:16:21.186Z,14.80
2019-01-04T11:18:50.538Z,11.30
2019-01-04T11:21:19.922Z,13.87
2019-01-04T11:24:15.678Z,16.17
2019-01-04T11:26:52.521Z,11.67
2019-01-04T11:30:01.576Z,16.33
2019-01-04T11:32:58.038Z,14.03
2019-01-04T11:35:50.542Z,15.17
2019-01-04T11:38:50.117Z,17.30
2019-01-04T11:42:13.277Z,16.20
2019-01-04T11:45:11.902Z,10.43
2019-01-04T11:48:12.505Z,9.90
2019-01-04T11:51:11.943Z,13.13
2019-01-04T11:53:42.420Z,8.93
2019-01-04T11:56:11.878Z,11.50
2019-01-04T11:58:41.231Z,7.80
2019-01-04T12:01:10.558Z,10.37
2019-01-04T12:03:39.920Z,8.70
2019-01-04T12:06:09.305Z,10.47
2019-01-04T12:08:38.736Z,6.43
2019-01-04T12:11:08.095Z,8.70
2019-01-04T12:13:37.378Z,8.60
2019-01-04T12:16:06.677Z,5.17
2019-01-04T12:18:36.182Z,8.10
2019-01-04T12:21:05.479Z,8.47
2019-01-04T12:23:34.794Z,6.37
2019-01-04T12:26:04.157Z,7.20
2019-01-04T12:28:33.802Z,8.67
2019-01-04T12:31:22.181Z,6.17
2019-01-04T12:33:51.577Z,8.63
2019-01-04T12:36:20.879Z,5.77
2019-01-04T12:38:50.247Z,7.30
2019-01-04T12:41:19.604Z,7.40
2019-01-04T12:43:48.904Z,7.93
2019-01-04T12:46:18.254Z,7.73
2019-01-04T12:48:47.558Z,7.43
2019-01-04T12:51:16.918Z,6.17
2019-01-04T12:53:46.219Z,6.90
2019-01-04T12:56:15.652Z,7.17
2019-01-04T12:58:45.010Z,6.37
2019-01-04T13:01:14.309Z,6.67
2019-01-04T13:03:43.695Z,8.57
2019-01-04T13:06:12.998Z,7.63
2019-01-04T13:08:42.479Z,8.67
2019-01-04T13:11:11.854Z,7.03
2019-01-04T13:13:41.200Z,9.73
2019-01-04T13:16:10.494Z,10.10
2019-01-04T13:18:39.862Z,9.73
2019-01-04T13:21:09.221Z,10.20
2019-01-04T13:23:38.541Z,9.43
2019-01-04T13:26:07.925Z,9.67
2019-01-04T13:28:37.277Z,12.20
2019-01-04T13:31:06.581Z,12.37
2019-01-04T13:33:35.974Z,9.80
2019-01-04T13:36:06.893Z,7.70
2019-01-04T13:38:36.277Z,10.17
2019-01-04T13:41:05.646Z,10.53
2019-01-04T13:43:34.961Z,10.40
2019-01-04T13:46:04.325Z,14.57
2019-01-04T13:48:33.634Z,12.47
2019-01-04T13:51:03.005Z,15.20
2019-01-04T13:53:51.509Z,14.07
2019-01-04T13:56:21.038Z,14.20
2019-01-04T13:58:50.411Z,17.37
2019-01-04T14:01:19.865Z,15.07
2019-01-04T14:03:49.181Z,13.97
2019-01-04T14:06:18.566Z,11.70
2019-01-04T14:08:47.917Z,11.87
2019-01-04T14:11:17.270Z,13.97
2019-01-04T14:13:46.572Z,13.27
2019-01-04T14:16:15.933Z,12.10
2019-01-04T14:18:45.237Z,15.33
2019-01-04T14:21:14.599Z,13.80
2019-01-04T14:23:43.950Z,18.00
2019-01-04T14:26:13.314Z,13.87
2019-01-04T14:28:42.675Z,17.50
2019-01-04T14:31:11.932Z,16.90
2019-01-04T14:33:41.330Z,18.93
2019-01-04T14:36:10.669Z,9.60
2019-01-04T14:38:40.041Z,7.87
2019-01-04T14:41:09.567Z,11.03
2019-01-04T14:43:38.866Z,14.27
2019-01-04T14:46:08.166Z,13.37
2019-01-04T14:48:37.527Z,19.60
2019-01-04T14:51:06.841Z,16.07
2019-01-04T14:53:36.151Z,20.43
2019-01-04T14:56:05.514Z,22.87
2019-01-04T14:58:34.937Z,24.27
2019-01-04T15:01:04.289Z,16.43
2019-01-04T15:03:33.750Z,38.53
2019-01-04T15:06:03.104Z,39.30
2019-01-04T15:08:32.570Z,40.03
2019-01-04T15:11:01.936Z,23.23
2019-01-04T15:13:31.293Z,15.53
2019-01-04T15:16:00.738Z,21.03
2019-01-04T15:18:30.115Z,21.97
2019-01-04T15:20:59.403Z,20.13
2019-01-04T15:23:28.942Z,16.53
2019-01-04T15:25:58.249Z,18.50
2019-01-04T15:28:27.597Z,20.60
2019-01-04T15:30:56.910Z,18.47
2019-01-04T15:33:26.276Z,19.20
2019-01-04T15:35:55.534Z,13.93
2019-01-04T15:38:24.951Z,23.37
2019-01-04T15:40:54.247Z,17.10
2019-01-04T15:43:23.547Z,11.57
2019-01-04T15:45:52.922Z,21.80
2019-01-04T15:48:22.224Z,12.20
2019-01-04T15:50:51.578Z,17.20
2019-01-04T15:53:20.946Z,19.57
2019-01-04T15:55:50.271Z,15.87
2019-01-04T15:58:19.680Z,15.17
2019-01-04T16:00:48.980Z,18.00
2019-01-04T16:03:18.368Z,18.23
2019-01-04T16:05:47.723Z,21.13
2019-01-04T16:08:17.200Z,20.13
2019-01-04T16:10:46.511Z,24.97
2019-01-04T16:13:15.870Z,18.73
2019-01-04T16:15:45.402Z,23.23
2019-01-04T16:18:14.714Z,26.80
2019-01-04T16:20:44.014Z,16.97
2019-01-04T16:23:13.438Z,28.13
2019-01-04T16:25:42.831Z,26.60
2019-01-04T16:28:12.129Z,23.33
2019-01-04T16:30:41.453Z,27.77
2019-01-04T16:33:10.815Z,16.17
2019-01-04T16:35:40.126Z,19.17
2019-01-04T16:38:09.505Z,23.87
2019-01-04T16:40:38.915Z,23.63
2019-01-04T16:43:08.214Z,25.63
2019-01-04T16:45:37.682Z,18.17
2019-01-04T16:48:07.114Z,20.80
2019-01-04T16:50:36.493Z,17.70
2019-01-04T16:53:05.772Z,21.43
2019-01-04T16:55:35.158Z,22.63
2019-01-04T16:58:04.675Z,22.90
2019-01-04T17:00:34.036Z,23.23
2019-01-04T17:03:03.478Z,20.30
2019-01-04T17:05:32.770Z,29.97
2019-01-04T17:08:02.318Z,25.27
2019-01-04T17:10:31.686Z,26.23
2019-01-04T17:13:01.066Z,27.73
2019-01-04T17:15:30.417Z,21.63
2019-01-04T17:17:59.738Z,21.23
2019-01-04T17:20:29.090Z,15.60
2019-01-04T17:22:58.390Z,18.97
2019-01-04T17:25:27.740Z,18.07
2019-01-04T17:27:57.039Z,26.10
2019-01-04T17:30:26.414Z,22.73
2019-01-04T17:32:55.773Z,25.40
2019-01-04T17:35:25.067Z,16.00
2019-01-04T17:37:54.439Z,25.13
2019-01-04T17:40:23.811Z,23.43
2019-01-04T17:42:53.163Z,19.73
2019-01-04T17:45:22.462Z,24.93
2019-01-04T17:47:51.828Z,22.37
2019-01-04T17:50:21.190Z,16.30
2019-01-04T17:52:50.547Z,14.57
2019-01-04T17:55:19.974Z,26.27
2019-01-04T17:57:49.368Z,23.13
2019-01-04T18:00:18.795Z,27.87
2019-01-04T18:02:48.190Z,20.70
2019-01-04T18:05:17.525Z,24.23
2019-01-04T18:07:46.885Z,25.03
2019-01-04T18:10:16.247Z,23.43
2019-01-04T18:12:45.658Z,22.33
2019-01-04T18:15:15.105Z,18.33
2019-01-04T18:17:44.649Z,22.03
2019-01-04T18:20:14.050Z,19.67
2019-01-04T18:22:43.620Z,22.20
2019-01-04T18:25:13.128Z,28.00
2019-01-04T18:27:42.559Z,19.97
2019-01-04T18:30:11.990Z,25.13
2019-01-04T18:32:41.313Z,22.50
2019-01-04T18:35:10.706Z,20.37
2019-01-04T18:37:40.086Z,24.13
2019-01-04T18:40:10.969Z,19.23
2019-01-04T18:42:40.491Z,25.03
2019-01-04T18:45:09.958Z,25.77
2019-01-04T18:47:39.654Z,19.13
2019-01-04T18:50:12.130Z,28.37
2019-01-04T18:52:41.499Z,28.97
2019-01-04T18:55:13.822Z,22.33
2019-01-04T18:57:43.215Z,20.00
2019-01-04T19:00:13.098Z,27.80
2019-01-04T19:02:42.466Z,22.40
2019-01-04T19:05:11.836Z,20.73
2019-01-04T19:07:41.430Z,28.70
2019-01-04T19:10:11.166Z,24.67
2019-01-04T19:12:40.567Z,24.53
2019-01-04T19:15:10.525Z,28.20
2019-01-04T19:17:40.030Z,24.70
2019-01-04T19:20:09.378Z,26.33
2019-01-04T19:22:38.679Z,27.27
2019-01-04T19:25:08.148Z,29.57
2019-01-04T19:27:37.442Z,16.03
2019-01-04T19:30:07.833Z,26.27
2019-01-04T19:32:37.333Z,19.43
2019-01-04T19:35:06.631Z,30.23
2019-01-04T19:37:36.097Z,26.03
2019-01-04T19:40:06.371Z,30.30
2019-01-04T19:42:35.798Z,26.23
2019-01-04T19:45:05.993Z,29.30
2019-01-04T19:47:35.314Z,28.07
2019-01-04T19:50:19.609Z,21.53
2019-01-04T19:52:48.927Z,29.70
2019-01-04T19:55:18.312Z,28.93
2019-01-04T19:57:47.877Z,32.80
2019-01-04T20:00:17.337Z,33.87
2019-01-04T20:02:46.721Z,24.43
2019-01-04T20:05:39.719Z,32.80
2019-01-04T20:09:14.894Z,38.07
2019-01-04T20:12:48.073Z,29.53
2019-01-04T20:16:03.450Z,33.37
2019-01-04T20:19:01.244Z,31.90
2019-01-04T20:21:52.582Z,31.50
2019-01-04T20:24:50.243Z,25.43
2019-01-04T20:27:37.102Z,32.53
2019-01-04T20:30:29.095Z,29.10
2019-01-04T20:33:26.643Z,30.37
2019-01-04T20:36:33.318Z,32.87
2019-01-04T20:39:33.643Z,34.93
2019-01-04T20:42:30.867Z,34.33
2019-01-04T20:45:25.282Z,23.30
2019-01-04T20:48:19.755Z,25.30
2019-01-04T20:51:21.650Z,31.90
2019-01-04T20:54:20.530Z,29.03
2019-01-04T20:57:08.780Z,22.87
2019-01-04T20:59:59.990Z,32.97
2019-01-04T21:02:46.893Z,26.47
2019-01-04T21:05:34.445Z,32.00
2019-01-04T21:08:25.450Z,32.83
2019-01-04T21:11:13.744Z,31.27
2019-01-04T21:14:08.388Z,30.90
2019-01-04T21:17:11.766Z,32.97
2019-01-04T21:19:58.979Z,35.67
2019-01-04T21:22:40.559Z,20.73
2019-01-04T21:25:33.461Z,33.40
2019-01-04T21:28:41.169Z,32.13
2019-01-04T21:31:29.946Z,34.37
2019-01-04T21:34:18.325Z,27.83
2019-01-04T21:37:06.438Z,25.80
2019-01-04T21:39:54.679Z,32.30
2019-01-04T21:42:42.988Z,27.53
2019-01-04T21:45:30.222Z,34.77
2019-01-04T21:48:21.811Z,34.50
2019-01-04T21:51:13.369Z,34.90
2019-01-04T21:53:56.987Z,32.63
2019-01-04T21:57:03.635Z,36.77
2019-01-04T21:59:54.821Z,32.70
2019-01-04T22:02:48.930Z,33.67
2019-01-04T22:05:49.054Z,37.30
2019-01-04T22:08:37.371Z,31.47
2019-01-04T22:11:29.487Z,31.20
2019-01-04T22:14:16.352Z,24.50
2019-01-04T22:17:16.912Z,31.43
2019-01-04T22:20:09.541Z,31.17
2019-01-04T22:22:56.930Z,21.57
2019-01-04T22:26:03.347Z,17.23
2019-01-04T22:28:51.674Z,27.53
2019-01-04T22:31:39.916Z,33.20
2019-01-04T22:34:32.395Z,22.90
2019-01-04T22:37:19.521Z,26.00
2019-01-04T22:40:14.060Z,27.90
2019-01-04T22:43:01.004Z,28.17
2019-01-04T22:46:01.657Z,29.60
2019-01-04T22:48:54.872Z,27.60
2019-01-04T22:51:48.892Z,22.33
2019-01-04T22:54:36.108Z,30.07
2019-01-04T22:57:27.141Z,24.80
2019-01-04T23:00:14.488Z,26.30
2019-01-04T23:03:01.914Z,28.50
2019-01-04T23:05:49.111Z,25.07
2019-01-04T23:08:52.710Z,18.70
2019-01-04T23:11:49.740Z,17.03
2019-01-04T23:14:43.843Z,24.50
2019-01-04T23:17:24.093Z,23.53
2019-01-04T23:20:21.525Z,26.47
2019-01-04T23:22:58.737Z,23.07
2019-01-04T23:25:56.131Z,17.57
2019-01-04T23:28:43.365Z,22.13
2019-01-04T23:31:30.227Z,20.67
2019-01-04T23:34:18.519Z,21.93
2019-01-04T23:37:09.535Z,21.23
2019-01-04T23:39:57.921Z,15.47
2019-01-04T23:42:45.109Z,16.27
2019-01-04T23:45:36.450Z,21.43
2019-01-04T23:48:27.751Z,21.20
2019-01-04T23:51:16.849Z,16.90
2019-01-04T23:54:08.094Z,14.07
2019-01-04T23:57:15.110Z,16.70
